Houlton, ME

1:20 AM EST on November 18, 2017 (GMT -0500)
Houlton International | | Change Station

Elev 489 ft 46.12 °N, 67.79 °W | Updated 27 minutes ago

Overcast
Overcast
24 °F
Feels Like 12 °F
N
13
Wind Variable Wind from NW
Gusts 18 mph

Today
High -- | Low -- °F
--% Chance of Precip.
Yesterday
High -- | Low -- °F
Precip. -- in
Pressure 29.77 in
Visibility 10.0 miles
Clouds Overcast 2600 ft
Windchill 12 °F
Dew Point 17 °F
Humidity 75%
Rainfall 0.00 in
Snow Depth Not available.
6:36 AM 3:55 PM
Waning Crescent, 0% visible
METAR KHUL 180553Z AUTO 32011G16KT 10SM OVC026 M04/M08 A2975 RMK AO2 SLP081 T10441083 11011 21044 50002
Pressure 29.77 in
Visibility 10.0 miles
Clouds Overcast 2600 ft
Windchill 12 °F
Dew Point 17 °F
Humidity 75%
Rainfall 0.00 in
Snow Depth Not available.
6:36 AM 3:55 PM
Waning Crescent, 0% visible
METAR KHUL 180553Z AUTO 32011G16KT 10SM OVC026 M04/M08 A2975 RMK AO2 SLP081 T10441083 11011 21044 50002

Get Severe Weather Alerts

Thanks for signing up!

Be on the lookout for a verification email in your inbox.

You'll start receiving the daily forecast at 6 AM.

×

10-Day Weather Forecast

Almanac

Astronomy

Nov. 18, 2017 Rise Set
Actual Time
Civil Twilight
Nautical Twilight
Astronomical Twilight
Moon
Length of Visible Light
Length of Day
Tomorrow will be .
, % of the Moon is Illuminated

Today's Extremes

State Highs State Lows

Community

WunderPhotos

Category 6

Welcome to Category 6. This is the collective home for Weather Underground's featured writeups by Dr. Jeff Masters (right), Bob Henson (left), Chris Burt, and other regular contributors.

Nearby

Air Quality

  Air Quality AQ Index Pollutant
Not available.

Snow Depth

Station Depth Elevation

Earthquake Activity

City Distance Mag. Time & Date
Minimum magnitude displayed is 2.5.

Coastal Water Temperatures

Place Temperature

Stations

Nearby Weather Stations

Station Location Temp. Windchill Dew Point Humidity Wind Precip. Elev Updated Type
                   

Watches & Warnings

There are currently no watches in effect.